createdAt,value
2018-05-03T00:00:52.145Z,19.43
2018-05-03T00:03:21.130Z,20.53
2018-05-03T00:05:49.852Z,21.27
2018-05-03T00:08:18.748Z,20.40
2018-05-03T00:10:48.516Z,21.47
2018-05-03T00:13:16.631Z,22.13
2018-05-03T00:15:44.735Z,21.87
2018-05-03T00:18:12.853Z,20.83
2018-05-03T00:20:41.761Z,20.03
2018-05-03T00:23:09.928Z,22.13
2018-05-03T00:25:38.820Z,22.37
2018-05-03T00:28:07.698Z,22.87
2018-05-03T00:30:37.052Z,23.27
2018-05-03T00:33:05.343Z,23.57
2018-05-03T00:35:35.161Z,23.53
2018-05-03T00:38:04.004Z,23.33
2018-05-03T00:40:32.115Z,24.53
2018-05-03T00:43:00.240Z,23.90
2018-05-03T00:45:29.228Z,24.97
2018-05-03T00:47:58.097Z,24.97
2018-05-03T00:50:26.240Z,25.67
2018-05-03T00:52:54.469Z,24.57
2018-05-03T00:55:23.348Z,25.10
2018-05-03T00:57:52.846Z,25.50
2018-05-03T01:00:20.949Z,25.10
2018-05-03T01:02:49.076Z,25.70
2018-05-03T01:05:17.188Z,25.83
2018-05-03T01:07:45.368Z,26.17
2018-05-03T01:10:14.056Z,26.47
2018-05-03T01:12:42.225Z,26.33
2018-05-03T01:15:10.338Z,26.17
2018-05-03T01:17:38.602Z,26.03
2018-05-03T01:20:06.917Z,26.53
2018-05-03T01:22:35.181Z,27.50
2018-05-03T01:25:03.390Z,27.23
2018-05-03T01:27:32.279Z,27.37
2018-05-03T01:30:00.395Z,27.70
2018-05-03T01:32:28.540Z,27.63
2018-05-03T01:35:17.392Z,27.13
2018-05-03T01:37:45.499Z,28.50
2018-05-03T01:40:13.634Z,27.00
2018-05-03T01:42:41.737Z,27.77
2018-05-03T01:45:09.854Z,26.93
2018-05-03T01:47:38.136Z,28.27
2018-05-03T01:50:06.430Z,27.20
2018-05-03T01:52:35.334Z,29.33
2018-05-03T01:55:03.581Z,29.67
2018-05-03T01:57:32.462Z,30.07
2018-05-03T02:00:00.585Z,28.23
2018-05-03T02:02:28.691Z,29.90
2018-05-03T02:04:56.825Z,28.83
2018-05-03T02:07:25.033Z,29.47
2018-05-03T02:09:53.354Z,30.17
2018-05-03T02:12:21.517Z,30.97
2018-05-03T02:14:49.626Z,30.60
2018-05-03T02:17:17.736Z,29.07
2018-05-03T02:19:46.462Z,30.73
2018-05-03T02:22:15.328Z,30.50
2018-05-03T02:24:43.439Z,30.10
2018-05-03T02:27:11.737Z,30.90
2018-05-03T02:29:39.866Z,30.83
2018-05-03T02:32:07.979Z,31.50
2018-05-03T02:34:36.159Z,31.20
2018-05-03T02:37:04.449Z,30.77
2018-05-03T02:39:33.407Z,31.50
2018-05-03T02:42:01.527Z,31.80
2018-05-03T02:44:29.937Z,29.87
2018-05-03T02:46:58.810Z,30.63
2018-05-03T02:49:26.923Z,32.20
2018-05-03T02:51:55.192Z,32.33
2018-05-03T02:54:23.291Z,33.50
2018-05-03T02:56:51.405Z,32.37
2018-05-03T02:59:31.511Z,32.40
2018-05-03T03:02:05.362Z,33.37
2018-05-03T03:04:52.260Z,32.17
2018-05-03T03:14:19.102Z,34.30
2018-05-03T03:17:05.377Z,32.40
2018-05-03T03:20:02.343Z,31.10
2018-05-03T03:22:48.984Z,32.47
2018-05-03T03:25:28.832Z,32.43
2018-05-03T03:28:14.554Z,32.93
2018-05-03T03:31:00.123Z,33.33
2018-05-03T03:33:40.151Z,36.13
2018-05-03T03:36:20.171Z,36.27
2018-05-03T03:39:00.048Z,37.60
2018-05-03T03:41:41.564Z,34.67
2018-05-03T03:44:21.499Z,34.43
2018-05-03T03:46:50.824Z,36.23
2018-05-03T03:49:19.699Z,33.43
2018-05-03T03:51:47.816Z,37.43
2018-05-03T03:54:16.863Z,35.30
2018-05-03T03:56:44.989Z,35.23
2018-05-03T03:59:13.298Z,33.80
2018-05-03T04:01:41.656Z,33.27
2018-05-03T04:04:09.759Z,35.60
2018-05-03T04:06:39.436Z,33.93
2018-05-03T04:09:07.557Z,34.87
2018-05-03T04:11:35.669Z,33.10
2018-05-03T04:14:03.786Z,37.93
2018-05-03T04:16:31.950Z,38.00
2018-05-03T04:19:11.944Z,39.37
2018-05-03T04:21:52.198Z,39.83
2018-05-03T04:24:32.191Z,34.73
2018-05-03T04:27:00.452Z,39.13
2018-05-03T04:29:29.797Z,38.30
2018-05-03T04:31:58.262Z,39.90
2018-05-03T04:34:27.072Z,38.37
2018-05-03T04:36:55.882Z,40.37
2018-05-03T04:39:24.012Z,42.47
2018-05-03T04:41:52.169Z,40.53
2018-05-03T04:44:20.286Z,39.67
2018-05-03T04:46:48.416Z,39.57
2018-05-03T04:49:17.294Z,35.60
2018-05-03T04:51:45.953Z,37.63
2018-05-03T04:54:14.067Z,40.27
2018-05-03T04:56:42.289Z,42.03
2018-05-03T04:59:10.497Z,39.93
2018-05-03T05:01:39.374Z,40.70
2018-05-03T05:04:08.401Z,37.30
2018-05-03T05:06:36.517Z,40.53
2018-05-03T05:09:04.641Z,41.93
2018-05-03T05:11:32.780Z,38.87
2018-05-03T05:14:01.668Z,39.03
2018-05-03T05:16:30.565Z,38.03
2018-05-03T05:18:59.462Z,38.23
2018-05-03T05:21:28.408Z,38.87
2018-05-03T05:23:56.737Z,38.27
2018-05-03T05:26:25.590Z,38.30
2018-05-03T05:28:53.865Z,36.70
2018-05-03T05:31:22.158Z,37.43
2018-05-03T05:33:50.273Z,36.80
2018-05-03T05:36:18.394Z,35.73
2018-05-03T05:38:47.890Z,38.75
2018-05-03T05:41:16.062Z,31.30
2018-05-03T05:43:44.174Z,31.10
2018-05-03T05:46:13.050Z,30.23
2018-05-03T05:48:42.647Z,29.93
2018-05-03T05:51:10.845Z,29.27
2018-05-03T05:53:38.932Z,30.00
2018-05-03T05:56:07.035Z,31.20
2018-05-03T05:58:35.157Z,30.90
2018-05-03T06:01:04.114Z,31.03
2018-05-03T06:03:32.241Z,31.57
2018-05-03T06:06:00.349Z,29.57
2018-05-03T06:08:28.545Z,29.00
2018-05-03T06:10:57.455Z,29.17
2018-05-03T06:13:26.428Z,28.47
2018-05-03T06:15:54.684Z,28.37
2018-05-03T06:18:22.786Z,28.40
2018-05-03T06:20:50.971Z,28.43
2018-05-03T06:23:19.848Z,27.47
2018-05-03T06:25:48.042Z,26.47
2018-05-03T06:28:17.940Z,24.77
2018-05-03T06:30:46.182Z,25.40
2018-05-03T06:33:14.436Z,27.97
2018-05-03T06:35:42.618Z,25.13
2018-05-03T06:38:10.746Z,23.33
2018-05-03T06:40:39.429Z,22.23
2018-05-03T06:43:08.443Z,18.80
2018-05-03T06:45:38.754Z,17.83
2018-05-03T06:48:07.653Z,17.63
2018-05-03T06:50:35.787Z,15.97
2018-05-03T06:53:04.056Z,14.40
2018-05-03T06:55:32.383Z,16.10
2018-05-03T06:58:01.286Z,15.93
2018-05-03T07:00:29.477Z,14.30
2018-05-03T07:02:57.551Z,15.17
2018-05-03T07:05:25.736Z,13.27
2018-05-03T07:07:53.838Z,10.77
2018-05-03T07:10:22.748Z,9.27
2018-05-03T07:12:51.616Z,9.63
2018-05-03T07:15:19.735Z,9.57
2018-05-03T07:17:47.863Z,10.00
2018-05-03T07:20:16.001Z,9.83
2018-05-03T07:22:44.314Z,7.90
2018-05-03T07:25:13.418Z,6.57
2018-05-03T07:27:41.449Z,6.17
2018-05-03T07:30:09.756Z,5.80
2018-05-03T07:32:37.881Z,6.20
2018-05-03T07:35:06.004Z,5.40
2018-05-03T07:37:34.110Z,5.10
2018-05-03T07:40:02.213Z,4.50
2018-05-03T07:42:30.311Z,4.47
2018-05-03T07:44:58.431Z,4.60
2018-05-03T07:47:27.126Z,4.03
2018-05-03T07:49:55.242Z,3.40
2018-05-03T07:52:23.450Z,3.37
2018-05-03T07:54:52.474Z,3.60
2018-05-03T07:57:20.590Z,3.27
2018-05-03T07:59:48.697Z,3.00
2018-05-03T08:02:16.828Z,2.70
2018-05-03T08:04:44.922Z,2.30
2018-05-03T08:07:13.808Z,2.00
2018-05-03T08:09:41.916Z,2.40
2018-05-03T08:12:10.313Z,2.17
2018-05-03T08:14:38.439Z,2.60
2018-05-03T08:17:06.974Z,2.47
2018-05-03T08:19:35.831Z,2.53
2018-05-03T08:22:04.705Z,2.47
2018-05-03T08:24:33.579Z,2.10
2018-05-03T08:27:01.776Z,2.47
2018-05-03T08:29:30.029Z,1.70
2018-05-03T08:31:58.169Z,1.83
2018-05-03T08:34:26.384Z,2.13
2018-05-03T08:36:54.485Z,2.07
2018-05-03T08:39:22.642Z,2.10
2018-05-03T08:41:51.509Z,1.87
2018-05-03T08:44:19.608Z,2.10
2018-05-03T08:46:48.555Z,2.50
2018-05-03T08:49:16.840Z,2.40
2018-05-03T08:51:45.005Z,2.77
2018-05-03T08:54:14.121Z,2.27
2018-05-03T08:56:42.218Z,3.00
2018-05-03T08:59:11.096Z,2.80
2018-05-03T09:01:39.243Z,2.80
2018-05-03T09:04:07.311Z,2.70
2018-05-03T09:06:35.489Z,2.50
2018-05-03T09:09:03.780Z,2.83
2018-05-03T09:11:31.902Z,2.60
2018-05-03T09:13:59.993Z,2.80
2018-05-03T09:16:28.211Z,2.67
2018-05-03T09:18:57.087Z,2.60
2018-05-03T09:21:25.288Z,3.37
2018-05-03T09:23:54.334Z,2.97
2018-05-03T09:26:22.565Z,2.90
2018-05-03T09:28:50.849Z,2.57
2018-05-03T09:31:18.981Z,2.30
2018-05-03T09:33:47.967Z,2.40
2018-05-03T09:36:16.097Z,2.70
2018-05-03T09:38:44.834Z,2.50
2018-05-03T09:41:12.953Z,2.50
2018-05-03T09:43:41.059Z,2.50
2018-05-03T09:46:09.172Z,2.77
2018-05-03T09:48:38.049Z,2.57
2018-05-03T09:51:06.177Z,2.50
2018-05-03T09:53:34.406Z,2.80
2018-05-03T09:56:03.456Z,2.80
2018-05-03T09:58:31.620Z,2.70
2018-05-03T10:00:59.907Z,2.50
2018-05-03T10:03:28.340Z,2.57
2018-05-03T10:05:56.526Z,2.50
2018-05-03T10:08:24.761Z,2.53
2018-05-03T10:10:52.932Z,2.30
2018-05-03T10:13:21.200Z,2.50
2018-05-03T10:15:49.400Z,2.20
2018-05-03T10:18:17.658Z,2.30
2018-05-03T10:20:45.841Z,2.87
2018-05-03T10:23:14.245Z,2.43
2018-05-03T10:25:42.458Z,2.37
2018-05-03T10:28:10.669Z,2.33
2018-05-03T10:30:39.068Z,2.27
2018-05-03T10:33:07.940Z,2.10
2018-05-03T10:35:36.502Z,2.40
2018-05-03T10:38:04.676Z,2.40
2018-05-03T10:40:32.838Z,2.10
2018-05-03T10:43:01.052Z,2.27
2018-05-03T10:45:29.248Z,1.90
2018-05-03T10:47:57.358Z,2.40
2018-05-03T10:50:25.487Z,2.30
2018-05-03T10:52:54.359Z,2.40
2018-05-03T10:55:22.490Z,2.17
2018-05-03T10:57:51.178Z,2.20
2018-05-03T11:00:19.371Z,2.00
2018-05-03T11:02:47.477Z,2.03
2018-05-03T11:05:15.721Z,2.20
2018-05-03T11:07:44.610Z,2.10
2018-05-03T11:10:12.887Z,2.50
2018-05-03T11:12:42.539Z,2.13
2018-05-03T11:15:11.613Z,2.20
2018-05-03T11:17:39.729Z,2.10
2018-05-03T11:20:07.838Z,2.50
2018-05-03T11:22:35.964Z,2.23
2018-05-03T11:25:04.204Z,2.57
2018-05-03T11:27:34.549Z,2.20
2018-05-03T11:30:03.417Z,2.50
2018-05-03T11:32:31.657Z,2.57
2018-05-03T11:35:01.294Z,2.53
2018-05-03T11:37:29.409Z,2.93
2018-05-03T11:39:57.576Z,2.60
2018-05-03T11:42:25.837Z,3.30
2018-05-03T11:44:54.034Z,3.40
2018-05-03T11:47:22.135Z,3.47
2018-05-03T11:49:50.339Z,3.10
2018-05-03T11:52:18.606Z,3.73
2018-05-03T11:54:46.709Z,3.20
2018-05-03T11:57:14.889Z,2.17
2018-05-03T11:59:43.268Z,2.33
2018-05-03T12:02:12.121Z,2.57
2018-05-03T12:04:40.358Z,2.77
2018-05-03T12:07:08.539Z,3.07
2018-05-03T12:09:36.656Z,3.00
2018-05-03T12:12:06.247Z,2.80
2018-05-03T12:14:34.650Z,3.17
2018-05-03T12:17:03.535Z,3.20
2018-05-03T12:19:31.644Z,3.23
2018-05-03T12:21:59.919Z,3.60
2018-05-03T12:24:28.121Z,3.23
2018-05-03T12:26:56.966Z,3.10
2018-05-03T12:29:25.851Z,3.20
2018-05-03T12:31:55.653Z,3.60
2018-05-03T12:34:24.741Z,3.30
2018-05-03T12:36:52.951Z,3.30
2018-05-03T12:39:21.825Z,2.87
2018-05-03T12:41:50.705Z,2.97
2018-05-03T12:44:18.851Z,2.83
2018-05-03T12:46:47.133Z,2.90
2018-05-03T12:49:15.334Z,2.77
2018-05-03T12:51:44.276Z,2.80
2018-05-03T12:54:12.382Z,2.60
2018-05-03T12:56:40.572Z,3.17
2018-05-03T12:59:09.468Z,2.77
2018-05-03T13:01:38.352Z,2.60
2018-05-03T13:04:07.290Z,2.87
2018-05-03T13:06:35.428Z,2.83
2018-05-03T13:09:04.412Z,2.97
2018-05-03T13:11:36.739Z,3.20
2018-05-03T13:14:04.851Z,3.20
2018-05-03T13:16:33.121Z,3.20
2018-05-03T13:19:01.229Z,3.00
2018-05-03T13:21:29.439Z,2.90
2018-05-03T13:23:57.566Z,2.77
2018-05-03T13:26:25.670Z,2.80
2018-05-03T13:28:53.969Z,3.00
2018-05-03T13:31:22.089Z,2.90
2018-05-03T13:33:51.039Z,3.00
2018-05-03T13:36:19.255Z,2.90
2018-05-03T13:38:47.389Z,3.20
2018-05-03T13:41:16.669Z,3.20
2018-05-03T13:43:45.494Z,2.83
2018-05-03T13:46:14.393Z,2.83
2018-05-03T13:48:44.099Z,3.03
2018-05-03T13:51:12.255Z,2.83
2018-05-03T13:53:40.577Z,2.53
2018-05-03T13:56:09.762Z,3.40
2018-05-03T13:58:37.994Z,3.03
2018-05-03T14:01:06.265Z,2.90
2018-05-03T14:03:34.372Z,2.60
2018-05-03T14:06:03.741Z,3.00
2018-05-03T14:08:32.169Z,3.00
2018-05-03T14:11:01.057Z,2.83
2018-05-03T14:13:29.937Z,2.83
2018-05-03T14:15:58.033Z,3.20
2018-05-03T14:18:26.263Z,2.97
2018-05-03T14:20:54.465Z,2.90
2018-05-03T14:23:22.470Z,3.50
2018-05-03T14:25:50.896Z,2.90
2018-05-03T14:28:19.120Z,2.90
2018-05-03T14:30:47.246Z,3.10
2018-05-03T14:33:15.463Z,3.33
2018-05-03T14:35:43.916Z,3.33
2018-05-03T14:38:13.125Z,2.97
2018-05-03T14:40:42.532Z,3.40
2018-05-03T14:43:11.388Z,3.57
2018-05-03T14:45:39.671Z,4.00
2018-05-03T14:48:07.840Z,3.30
2018-05-03T14:50:36.721Z,3.20
2018-05-03T14:53:04.859Z,3.00
2018-05-03T14:55:33.013Z,2.53
2018-05-03T14:58:01.903Z,2.80
2018-05-03T15:00:30.030Z,2.33
2018-05-03T15:02:58.270Z,2.20
2018-05-03T15:05:28.221Z,2.27
2018-05-03T15:07:56.507Z,2.50
2018-05-03T15:10:24.627Z,2.10
2018-05-03T15:12:52.727Z,2.60
2018-05-03T15:15:20.828Z,3.00
2018-05-03T15:17:49.078Z,2.40
2018-05-03T15:20:17.175Z,3.00
2018-05-03T15:22:45.296Z,2.70
2018-05-03T15:25:13.530Z,2.50
2018-05-03T15:27:42.422Z,2.60
2018-05-03T15:30:10.517Z,2.23
2018-05-03T15:32:38.992Z,2.10
2018-05-03T15:35:07.853Z,2.60
2018-05-03T15:37:35.977Z,2.20
2018-05-03T15:40:04.879Z,2.10
2018-05-03T15:42:32.965Z,2.40
2018-05-03T15:45:01.148Z,2.37
2018-05-03T15:47:29.979Z,2.40
2018-05-03T15:49:59.527Z,2.50
2018-05-03T15:52:27.591Z,2.80
2018-05-03T15:54:55.724Z,2.20
2018-05-03T15:57:24.607Z,2.47
2018-05-03T15:59:53.533Z,2.30
2018-05-03T16:02:21.671Z,2.60
2018-05-03T16:04:49.768Z,2.43
2018-05-03T16:07:17.888Z,2.67
2018-05-03T16:09:46.013Z,2.37
2018-05-03T16:12:15.197Z,2.50
2018-05-03T16:14:43.315Z,2.30
2018-05-03T16:17:11.698Z,2.50
2018-05-03T16:19:39.811Z,2.70
2018-05-03T16:22:08.690Z,2.90
2018-05-03T16:24:36.863Z,2.70
2018-05-03T16:27:05.881Z,2.70
2018-05-03T16:29:33.925Z,2.90
2018-05-03T16:32:02.073Z,2.90
2018-05-03T16:34:30.786Z,3.30
2018-05-03T16:37:00.420Z,3.10
2018-05-03T16:39:29.771Z,2.43
2018-05-03T16:41:58.048Z,2.67
2018-05-03T16:44:26.386Z,2.80
2018-05-03T16:46:55.286Z,3.00
2018-05-03T16:49:24.341Z,2.80
2018-05-03T16:51:52.457Z,2.60
2018-05-03T16:54:20.710Z,2.40
2018-05-03T16:56:49.579Z,2.53
2018-05-03T16:59:17.871Z,2.80
2018-05-03T17:01:45.962Z,2.53
2018-05-03T17:04:14.382Z,2.95
2018-05-03T17:06:42.488Z,2.73
2018-05-03T17:09:10.776Z,2.70
2018-05-03T17:11:39.937Z,2.97
2018-05-03T17:14:08.297Z,2.37
2018-05-03T17:16:36.364Z,2.87
2018-05-03T17:19:04.594Z,2.80
2018-05-03T17:21:32.735Z,2.80
2018-05-03T17:24:01.765Z,2.50
2018-05-03T17:26:30.651Z,2.67
2018-05-03T17:28:59.634Z,3.00
2018-05-03T17:31:27.970Z,3.30
2018-05-03T17:33:56.140Z,2.57
2018-05-03T17:36:24.376Z,3.10
2018-05-03T17:38:53.239Z,2.80
2018-05-03T17:41:21.898Z,2.37
2018-05-03T17:43:50.043Z,2.60
2018-05-03T17:46:18.297Z,2.47
2018-05-03T17:48:46.475Z,2.87
2018-05-03T17:51:15.395Z,2.70
2018-05-03T17:53:43.854Z,2.30
2018-05-03T17:56:11.976Z,2.57
2018-05-03T17:58:40.072Z,2.40
2018-05-03T18:01:09.041Z,2.40
2018-05-03T18:03:37.203Z,2.30
2018-05-03T18:06:05.533Z,2.30
2018-05-03T18:08:34.488Z,2.60
2018-05-03T18:11:02.703Z,2.40
2018-05-03T18:13:31.651Z,2.37
2018-05-03T18:15:59.785Z,2.50
2018-05-03T18:18:27.877Z,2.43
2018-05-03T18:20:56.026Z,2.70
2018-05-03T18:23:28.047Z,2.60
2018-05-03T18:25:57.810Z,2.57
2018-05-03T18:28:25.946Z,2.43
2018-05-03T18:30:54.139Z,2.77
2018-05-03T18:33:23.005Z,2.27
2018-05-03T18:35:51.108Z,2.50
2018-05-03T18:38:19.290Z,2.63
2018-05-03T18:40:47.877Z,2.43
2018-05-03T18:43:16.031Z,2.33
2018-05-03T18:45:45.117Z,2.70
2018-05-03T18:48:13.297Z,2.60
2018-05-03T18:50:42.215Z,2.80
2018-05-03T18:53:10.456Z,2.80
2018-05-03T18:55:38.562Z,2.90
2018-05-03T18:58:06.671Z,2.40
2018-05-03T19:00:34.796Z,2.73
2018-05-03T19:03:02.933Z,2.37
2018-05-03T19:05:31.062Z,2.80
2018-05-03T19:07:59.350Z,2.90
2018-05-03T19:10:27.723Z,2.83
2018-05-03T19:12:55.959Z,2.97
2018-05-03T19:15:25.055Z,3.27
2018-05-03T19:17:57.542Z,3.57
2018-05-03T19:20:26.506Z,2.90
2018-05-03T19:22:55.380Z,2.80
2018-05-03T19:25:23.481Z,2.73
2018-05-03T19:27:52.354Z,3.30
2018-05-03T19:30:21.295Z,2.73
2018-05-03T19:32:49.562Z,3.10
2018-05-03T19:35:17.977Z,2.70
2018-05-03T19:37:46.093Z,2.90
2018-05-03T19:40:14.974Z,3.20
2018-05-03T19:42:43.101Z,2.57
2018-05-03T19:45:11.216Z,2.73
2018-05-03T19:47:39.331Z,2.47
2018-05-03T19:50:07.455Z,2.87
2018-05-03T19:52:35.631Z,2.50
2018-05-03T19:55:03.769Z,3.17
2018-05-03T19:57:31.999Z,4.23
2018-05-03T20:00:01.046Z,3.07
2018-05-03T20:02:29.350Z,2.87
2018-05-03T20:04:57.468Z,3.10
2018-05-03T20:07:25.613Z,3.40
2018-05-03T20:09:54.579Z,3.40
2018-05-03T20:12:22.744Z,3.07
2018-05-03T20:14:50.857Z,3.50
2018-05-03T20:17:20.695Z,3.40
2018-05-03T20:19:49.553Z,3.20
2018-05-03T20:22:17.777Z,3.40
2018-05-03T20:24:45.940Z,3.50
2018-05-03T20:27:14.062Z,4.07
2018-05-03T20:29:42.941Z,3.50
2018-05-03T20:32:11.050Z,3.20
2018-05-03T20:34:39.173Z,3.73
2018-05-03T20:37:07.273Z,3.27
2018-05-03T20:39:37.287Z,3.57
2018-05-03T20:42:05.503Z,3.40
2018-05-03T20:44:33.725Z,3.50
2018-05-03T20:47:02.122Z,3.80
2018-05-03T20:49:30.225Z,3.93
2018-05-03T20:55:11.491Z,4.37
2018-05-03T20:57:39.692Z,4.70
2018-05-03T21:00:07.735Z,4.43
2018-05-03T21:02:37.074Z,4.70
2018-05-03T21:05:05.439Z,4.80
2018-05-03T21:07:34.308Z,4.67
2018-05-03T21:10:02.412Z,4.10
2018-05-03T21:12:30.524Z,4.43
2018-05-03T21:15:01.852Z,4.70
2018-05-03T21:17:29.983Z,4.50
2018-05-03T21:19:59.828Z,4.73
2018-05-03T21:22:28.016Z,4.77
2018-05-03T21:24:56.295Z,4.63
2018-05-03T21:27:24.630Z,4.30
2018-05-03T21:29:53.508Z,4.77
2018-05-03T21:32:21.752Z,4.83
2018-05-03T21:34:50.037Z,4.53
2018-05-03T21:37:18.287Z,4.47
2018-05-03T21:39:46.486Z,4.87
2018-05-03T21:42:14.827Z,4.70
2018-05-03T21:44:43.052Z,4.80
2018-05-03T21:47:13.369Z,4.77
2018-05-03T21:49:41.940Z,4.10
2018-05-03T21:52:10.308Z,4.70
2018-05-03T21:54:38.406Z,4.47
2018-05-03T21:57:06.496Z,4.83
2018-05-03T21:59:35.365Z,5.47
2018-05-03T22:02:03.477Z,4.60
2018-05-03T22:04:31.572Z,4.93
2018-05-03T22:06:59.856Z,5.33
2018-05-03T22:09:28.005Z,5.77
2018-05-03T22:11:56.102Z,6.10
2018-05-03T22:14:24.961Z,6.60
2018-05-03T22:16:53.192Z,5.87
2018-05-03T22:19:23.053Z,6.37
2018-05-03T22:21:51.167Z,6.37
2018-05-03T22:24:20.090Z,6.03
2018-05-03T22:26:48.478Z,5.87
2018-05-03T22:29:17.352Z,5.73
2018-05-03T22:31:47.024Z,6.00
2018-05-03T22:34:15.244Z,5.37
2018-05-03T22:36:44.148Z,6.20
2018-05-03T22:39:13.136Z,6.00
2018-05-03T22:41:42.015Z,5.57
2018-05-03T22:44:10.904Z,5.40
2018-05-03T22:46:39.822Z,6.47
2018-05-03T22:49:07.921Z,6.27
2018-05-03T22:51:36.019Z,5.73
2018-05-03T22:54:04.213Z,5.60
2018-05-03T22:56:32.300Z,6.20
2018-05-03T22:59:01.162Z,5.93
2018-05-03T23:01:29.322Z,5.70
2018-05-03T23:03:57.406Z,6.63
2018-05-03T23:06:25.498Z,5.60
2018-05-03T23:08:54.397Z,6.47
2018-05-03T23:11:24.584Z,7.23
2018-05-03T23:13:52.852Z,6.77
2018-05-03T23:16:21.504Z,6.10
2018-05-03T23:18:49.619Z,6.83
2018-05-03T23:21:17.716Z,6.17
2018-05-03T23:23:46.609Z,6.90
2018-05-03T23:26:16.746Z,6.77
2018-05-03T23:28:45.616Z,7.73
2018-05-03T23:31:14.502Z,7.97
2018-05-03T23:33:42.774Z,7.47
2018-05-03T23:36:10.950Z,7.13
2018-05-03T23:38:39.158Z,7.23
2018-05-03T23:41:07.339Z,6.23
2018-05-03T23:43:35.439Z,7.10
2018-05-03T23:46:03.698Z,10.13
2018-05-03T23:48:33.429Z,10.30
2018-05-03T23:51:01.551Z,8.37
2018-05-03T23:53:30.440Z,7.90
2018-05-03T23:55:59.291Z,6.57
2018-05-03T23:58:27.388Z,6.03
